sensor_id;sensor_type;location;lat;lon;timestamp;temperature;humidity
80258;DHT22;69565;37.974;23.708;2023-05-14T00:01:36;23.50;40.10
80258;DHT22;69565;37.974;23.708;2023-05-14T00:04:02;23.50;40.10
80258;DHT22;69565;37.974;23.708;2023-05-14T00:06:28;23.50;40.20
80258;DHT22;69565;37.974;23.708;2023-05-14T00:08:54;23.50;40.20
80258;DHT22;69565;37.974;23.708;2023-05-14T00:11:20;23.50;41.20
80258;DHT22;69565;37.974;23.708;2023-05-14T00:13:46;23.50;40.10
80258;DHT22;69565;37.974;23.708;2023-05-14T00:16:11;23.50;40.20
80258;DHT22;69565;37.974;23.708;2023-05-14T00:18:37;23.40;40.20
80258;DHT22;69565;37.974;23.708;2023-05-14T00:21:03;23.50;40.30
80258;DHT22;69565;37.974;23.708;2023-05-14T00:23:29;23.40;40.30
80258;DHT22;69565;37.974;23.708;2023-05-14T00:25:54;23.50;40.30
80258;DHT22;69565;37.974;23.708;2023-05-14T00:28:20;23.40;40.10
80258;DHT22;69565;37.974;23.708;2023-05-14T00:30:46;23.40;40.10
80258;DHT22;69565;37.974;23.708;2023-05-14T00:33:12;23.40;40.10
80258;DHT22;69565;37.974;23.708;2023-05-14T00:35:38;23.40;40.10
80258;DHT22;69565;37.974;23.708;2023-05-14T00:38:03;23.40;40.20
80258;DHT22;69565;37.974;23.708;2023-05-14T00:40:29;23.40;40.20
80258;DHT22;69565;37.974;23.708;2023-05-14T00:42:55;23.40;40.20
80258;DHT22;69565;37.974;23.708;2023-05-14T00:45:21;23.40;40.20
80258;DHT22;69565;37.974;23.708;2023-05-14T00:47:51;23.40;40.40
80258;DHT22;69565;37.974;23.708;2023-05-14T00:50:17;23.40;40.40
80258;DHT22;69565;37.974;23.708;2023-05-14T00:52:43;23.40;40.40
80258;DHT22;69565;37.974;23.708;2023-05-14T00:55:09;23.40;40.50
80258;DHT22;69565;37.974;23.708;2023-05-14T00:57:37;23.30;40.50
80258;DHT22;69565;37.974;23.708;2023-05-14T01:00:04;23.40;40.60
80258;DHT22;69565;37.974;23.708;2023-05-14T01:02:30;23.40;40.70
80258;DHT22;69565;37.974;23.708;2023-05-14T01:04:56;23.30;40.70
80258;DHT22;69565;37.974;23.708;2023-05-14T01:07:56;23.30;40.70
80258;DHT22;69565;37.974;23.708;2023-05-14T01:10:52;23.30;40.60
80258;DHT22;69565;37.974;23.708;2023-05-14T01:15:55;23.30;40.50
80258;DHT22;69565;37.974;23.708;2023-05-14T01:18:23;23.30;40.60
80258;DHT22;69565;37.974;23.708;2023-05-14T01:20:50;23.30;40.60
80258;DHT22;69565;37.974;23.708;2023-05-14T01:23:17;23.30;40.60
80258;DHT22;69565;37.974;23.708;2023-05-14T01:25:42;23.30;40.50
80258;DHT22;69565;37.974;23.708;2023-05-14T01:28:14;23.30;40.60
80258;DHT22;69565;37.974;23.708;2023-05-14T01:33:25;23.30;40.50
80258;DHT22;69565;37.974;23.708;2023-05-14T01:35:53;23.30;41.60
80258;DHT22;69565;37.974;23.708;2023-05-14T01:38:19;23.30;40.70
80258;DHT22;69565;37.974;23.708;2023-05-14T01:40:46;23.30;40.70
80258;DHT22;69565;37.974;23.708;2023-05-14T01:43:14;23.30;40.70
80258;DHT22;69565;37.974;23.708;2023-05-14T01:45:40;23.30;40.70
80258;DHT22;69565;37.974;23.708;2023-05-14T01:48:06;23.30;40.80
80258;DHT22;69565;37.974;23.708;2023-05-14T01:50:32;23.30;40.80
80258;DHT22;69565;37.974;23.708;2023-05-14T01:52:58;23.30;40.90
80258;DHT22;69565;37.974;23.708;2023-05-14T01:55:24;23.30;40.90
80258;DHT22;69565;37.974;23.708;2023-05-14T01:57:53;23.20;40.80
80258;DHT22;69565;37.974;23.708;2023-05-14T02:00:23;23.20;40.80
80258;DHT22;69565;37.974;23.708;2023-05-14T02:02:52;23.20;40.90
80258;DHT22;69565;37.974;23.708;2023-05-14T02:05:17;23.20;40.90
80258;DHT22;69565;37.974;23.708;2023-05-14T02:07:43;23.20;41.00
80258;DHT22;69565;37.974;23.708;2023-05-14T02:10:09;23.20;40.90
80258;DHT22;69565;37.974;23.708;2023-05-14T02:12:35;23.20;40.90
80258;DHT22;69565;37.974;23.708;2023-05-14T02:15:02;23.20;40.80
80258;DHT22;69565;37.974;23.708;2023-05-14T02:17:28;23.20;40.80
80258;DHT22;69565;37.974;23.708;2023-05-14T02:19:54;23.20;40.80
80258;DHT22;69565;37.974;23.708;2023-05-14T02:22:20;23.20;40.80
80258;DHT22;69565;37.974;23.708;2023-05-14T02:24:45;23.20;40.80
80258;DHT22;69565;37.974;23.708;2023-05-14T02:27:11;23.20;40.80
80258;DHT22;69565;37.974;23.708;2023-05-14T02:29:37;23.20;40.90
80258;DHT22;69565;37.974;23.708;2023-05-14T02:32:04;23.20;40.90
80258;DHT22;69565;37.974;23.708;2023-05-14T02:34:30;23.20;40.90
80258;DHT22;69565;37.974;23.708;2023-05-14T02:36:55;23.20;41.00
80258;DHT22;69565;37.974;23.708;2023-05-14T02:39:21;23.10;40.90
80258;DHT22;69565;37.974;23.708;2023-05-14T02:41:47;23.20;40.90
80258;DHT22;69565;37.974;23.708;2023-05-14T02:44:12;23.20;41.00
80258;DHT22;69565;37.974;23.708;2023-05-14T02:46:38;23.20;41.10
80258;DHT22;69565;37.974;23.708;2023-05-14T02:49:04;23.20;41.10
80258;DHT22;69565;37.974;23.708;2023-05-14T02:51:30;23.20;41.10
80258;DHT22;69565;37.974;23.708;2023-05-14T02:53:55;23.20;41.20
80258;DHT22;69565;37.974;23.708;2023-05-14T02:56:21;23.10;41.10
80258;DHT22;69565;37.974;23.708;2023-05-14T02:58:47;23.10;41.10
80258;DHT22;69565;37.974;23.708;2023-05-14T03:01:13;23.20;42.20
80258;DHT22;69565;37.974;23.708;2023-05-14T03:03:39;23.20;41.10
80258;DHT22;69565;37.974;23.708;2023-05-14T03:06:04;23.10;41.10
80258;DHT22;69565;37.974;23.708;2023-05-14T03:08:30;23.10;41.10
80258;DHT22;69565;37.974;23.708;2023-05-14T03:10:56;23.10;41.10
80258;DHT22;69565;37.974;23.708;2023-05-14T03:13:22;23.10;41.10
80258;DHT22;69565;37.974;23.708;2023-05-14T03:15:47;23.10;41.20
80258;DHT22;69565;37.974;23.708;2023-05-14T03:18:13;23.10;41.10
80258;DHT22;69565;37.974;23.708;2023-05-14T03:20:39;23.10;41.10
80258;DHT22;69565;37.974;23.708;2023-05-14T03:23:05;23.10;41.10
80258;DHT22;69565;37.974;23.708;2023-05-14T03:25:31;23.10;41.10
80258;DHT22;69565;37.974;23.708;2023-05-14T03:27:57;23.10;41.10
80258;DHT22;69565;37.974;23.708;2023-05-14T03:30:23;23.10;41.10
80258;DHT22;69565;37.974;23.708;2023-05-14T03:32:49;23.10;41.10
80258;DHT22;69565;37.974;23.708;2023-05-14T03:35:14;23.10;41.00
80258;DHT22;69565;37.974;23.708;2023-05-14T03:37:40;23.10;41.00
80258;DHT22;69565;37.974;23.708;2023-05-14T03:40:06;23.10;41.10
80258;DHT22;69565;37.974;23.708;2023-05-14T03:42:32;23.10;41.00
80258;DHT22;69565;37.974;23.708;2023-05-14T03:44:58;23.10;41.00
80258;DHT22;69565;37.974;23.708;2023-05-14T03:47:24;23.10;41.00
80258;DHT22;69565;37.974;23.708;2023-05-14T03:49:49;23.10;41.00
80258;DHT22;69565;37.974;23.708;2023-05-14T03:52:15;23.10;41.00
80258;DHT22;69565;37.974;23.708;2023-05-14T03:54:41;23.20;41.10
80258;DHT22;69565;37.974;23.708;2023-05-14T03:57:06;23.20;41.00
80258;DHT22;69565;37.974;23.708;2023-05-14T03:59:32;23.20;41.00
80258;DHT22;69565;37.974;23.708;2023-05-14T04:01:58;23.20;41.00
80258;DHT22;69565;37.974;23.708;2023-05-14T04:04:24;23.20;41.00
80258;DHT22;69565;37.974;23.708;2023-05-14T04:06:49;23.20;41.10
80258;DHT22;69565;37.974;23.708;2023-05-14T04:09:15;23.20;41.00
80258;DHT22;69565;37.974;23.708;2023-05-14T04:11:41;23.20;41.00
80258;DHT22;69565;37.974;23.708;2023-05-14T04:14:06;23.20;41.00
80258;DHT22;69565;37.974;23.708;2023-05-14T04:16:32;23.20;40.90
80258;DHT22;69565;37.974;23.708;2023-05-14T04:19:01;23.20;40.90
80258;DHT22;69565;37.974;23.708;2023-05-14T04:21:26;23.20;40.90
80258;DHT22;69565;37.974;23.708;2023-05-14T04:23:52;23.30;41.00
80258;DHT22;69565;37.974;23.708;2023-05-14T04:26:18;23.30;41.00
80258;DHT22;69565;37.974;23.708;2023-05-14T04:28:44;23.30;40.90
80258;DHT22;69565;37.974;23.708;2023-05-14T04:31:10;23.30;40.80
80258;DHT22;69565;37.974;23.708;2023-05-14T04:33:36;23.30;40.80
80258;DHT22;69565;37.974;23.708;2023-05-14T04:36:02;23.30;40.70
80258;DHT22;69565;37.974;23.708;2023-05-14T04:38:29;23.40;40.70
80258;DHT22;69565;37.974;23.708;2023-05-14T04:40:56;23.40;40.70
80258;DHT22;69565;37.974;23.708;2023-05-14T04:43:23;23.50;40.70
80258;DHT22;69565;37.974;23.708;2023-05-14T04:45:49;23.50;40.60
80258;DHT22;69565;37.974;23.708;2023-05-14T04:48:16;23.50;40.50
80258;DHT22;69565;37.974;23.708;2023-05-14T04:50:41;23.50;40.40
80258;DHT22;69565;37.974;23.708;2023-05-14T04:53:09;23.60;40.40
80258;DHT22;69565;37.974;23.708;2023-05-14T04:55:35;23.60;40.30
80258;DHT22;69565;37.974;23.708;2023-05-14T04:58:01;23.70;40.30
80258;DHT22;69565;37.974;23.708;2023-05-14T05:00:28;23.80;40.20
80258;DHT22;69565;37.974;23.708;2023-05-14T05:02:54;23.80;40.00
80258;DHT22;69565;37.974;23.708;2023-05-14T05:05:19;23.90;40.00
80258;DHT22;69565;37.974;23.708;2023-05-14T05:07:45;23.90;39.80
80258;DHT22;69565;37.974;23.708;2023-05-14T05:10:11;23.90;39.70
80258;DHT22;69565;37.974;23.708;2023-05-14T05:12:37;24.00;39.50
80258;DHT22;69565;37.974;23.708;2023-05-14T05:15:03;24.00;39.40
80258;DHT22;69565;37.974;23.708;2023-05-14T05:17:29;24.10;39.30
80258;DHT22;69565;37.974;23.708;2023-05-14T05:19:55;24.10;39.20
80258;DHT22;69565;37.974;23.708;2023-05-14T05:22:21;24.20;39.10
80258;DHT22;69565;37.974;23.708;2023-05-14T05:24:46;24.20;39.00
80258;DHT22;69565;37.974;23.708;2023-05-14T05:27:12;24.30;38.80
80258;DHT22;69565;37.974;23.708;2023-05-14T05:29:38;24.40;38.60
80258;DHT22;69565;37.974;23.708;2023-05-14T05:32:05;24.50;38.60
80258;DHT22;69565;37.974;23.708;2023-05-14T05:34:31;24.50;38.40
80258;DHT22;69565;37.974;23.708;2023-05-14T05:36:57;24.60;38.30
80258;DHT22;69565;37.974;23.708;2023-05-14T05:39:22;24.60;38.10
80258;DHT22;69565;37.974;23.708;2023-05-14T05:41:48;24.70;39.10
80258;DHT22;69565;37.974;23.708;2023-05-14T05:44:14;24.80;37.90
80258;DHT22;69565;37.974;23.708;2023-05-14T05:46:39;24.80;37.80
80258;DHT22;69565;37.974;23.708;2023-05-14T05:49:05;24.90;37.70
80258;DHT22;69565;37.974;23.708;2023-05-14T05:51:31;24.90;37.40
80258;DHT22;69565;37.974;23.708;2023-05-14T05:53:57;25.00;37.30
80258;DHT22;69565;37.974;23.708;2023-05-14T05:56:23;25.10;37.20
80258;DHT22;69565;37.974;23.708;2023-05-14T05:58:48;25.20;37.10
80258;DHT22;69565;37.974;23.708;2023-05-14T06:01:14;25.20;36.80
80258;DHT22;69565;37.974;23.708;2023-05-14T06:03:40;25.30;36.70
80258;DHT22;69565;37.974;23.708;2023-05-14T06:06:06;25.40;36.60
80258;DHT22;69565;37.974;23.708;2023-05-14T06:08:31;25.50;36.40
80258;DHT22;69565;37.974;23.708;2023-05-14T06:10:57;25.60;36.20
80258;DHT22;69565;37.974;23.708;2023-05-14T06:13:23;25.70;36.10
80258;DHT22;69565;37.974;23.708;2023-05-14T06:15:48;25.80;36.00
80258;DHT22;69565;37.974;23.708;2023-05-14T06:18:14;25.90;35.80
80258;DHT22;69565;37.974;23.708;2023-05-14T06:20:40;25.90;35.60
80258;DHT22;69565;37.974;23.708;2023-05-14T06:23:06;26.00;35.40
80258;DHT22;69565;37.974;23.708;2023-05-14T06:25:32;26.10;35.30
80258;DHT22;69565;37.974;23.708;2023-05-14T06:27:58;26.20;35.10
80258;DHT22;69565;37.974;23.708;2023-05-14T06:30:24;26.30;34.90
80258;DHT22;69565;37.974;23.708;2023-05-14T06:32:50;26.40;34.80
80258;DHT22;69565;37.974;23.708;2023-05-14T06:35:17;26.50;34.60
80258;DHT22;69565;37.974;23.708;2023-05-14T06:37:43;26.50;34.50
80258;DHT22;69565;37.974;23.708;2023-05-14T06:40:10;26.60;34.40
80258;DHT22;69565;37.974;23.708;2023-05-14T06:42:35;26.60;34.30
80258;DHT22;69565;37.974;23.708;2023-05-14T06:45:01;26.60;34.20
80258;DHT22;69565;37.974;23.708;2023-05-14T06:47:27;26.70;34.20
80258;DHT22;69565;37.974;23.708;2023-05-14T06:49:52;26.80;34.00
80258;DHT22;69565;37.974;23.708;2023-05-14T06:52:20;26.90;34.00
80258;DHT22;69565;37.974;23.708;2023-05-14T06:54:45;26.90;33.70
80258;DHT22;69565;37.974;23.708;2023-05-14T06:57:11;27.00;33.60
80258;DHT22;69565;37.974;23.708;2023-05-14T06:59:37;27.10;33.40
80258;DHT22;69565;37.974;23.708;2023-05-14T07:02:02;27.20;33.30
80258;DHT22;69565;37.974;23.708;2023-05-14T07:04:28;27.30;33.10
80258;DHT22;69565;37.974;23.708;2023-05-14T07:06:54;27.30;33.00
80258;DHT22;69565;37.974;23.708;2023-05-14T07:09:20;27.40;32.80
80258;DHT22;69565;37.974;23.708;2023-05-14T07:11:46;27.50;32.70
80258;DHT22;69565;37.974;23.708;2023-05-14T07:14:12;27.60;32.60
80258;DHT22;69565;37.974;23.708;2023-05-14T07:16:37;27.70;32.50
80258;DHT22;69565;37.974;23.708;2023-05-14T07:19:03;27.70;32.40
80258;DHT22;69565;37.974;23.708;2023-05-14T07:21:29;27.80;32.30
80258;DHT22;69565;37.974;23.708;2023-05-14T07:23:54;27.80;32.20
80258;DHT22;69565;37.974;23.708;2023-05-14T07:26:20;27.70;32.20
80258;DHT22;69565;37.974;23.708;2023-05-14T07:28:48;27.70;32.30
80258;DHT22;69565;37.974;23.708;2023-05-14T07:31:14;27.60;32.40
80258;DHT22;69565;37.974;23.708;2023-05-14T07:33:40;27.60;32.40
80258;DHT22;69565;37.974;23.708;2023-05-14T07:36:06;27.50;32.40
80258;DHT22;69565;37.974;23.708;2023-05-14T07:38:32;27.40;32.50
80258;DHT22;69565;37.974;23.708;2023-05-14T07:40:58;27.40;32.60
80258;DHT22;69565;37.974;23.708;2023-05-14T07:43:24;27.30;32.60
80258;DHT22;69565;37.974;23.708;2023-05-14T07:45:50;27.30;32.60
80258;DHT22;69565;37.974;23.708;2023-05-14T07:48:15;27.30;32.70
80258;DHT22;69565;37.974;23.708;2023-05-14T07:50:41;27.30;32.70
80258;DHT22;69565;37.974;23.708;2023-05-14T07:53:07;27.30;32.70
80258;DHT22;69565;37.974;23.708;2023-05-14T07:55:32;27.40;32.70
80258;DHT22;69565;37.974;23.708;2023-05-14T07:57:58;27.50;32.60
80258;DHT22;69565;37.974;23.708;2023-05-14T08:00:24;27.60;32.40
80258;DHT22;69565;37.974;23.708;2023-05-14T08:02:50;27.70;32.30
80258;DHT22;69565;37.974;23.708;2023-05-14T08:05:16;27.70;32.20
80258;DHT22;69565;37.974;23.708;2023-05-14T08:07:42;27.80;32.10
80258;DHT22;69565;37.974;23.708;2023-05-14T08:10:08;27.80;32.00
80258;DHT22;69565;37.974;23.708;2023-05-14T08:12:34;27.80;31.90
80258;DHT22;69565;37.974;23.708;2023-05-14T08:15:00;27.80;31.90
80258;DHT22;69565;37.974;23.708;2023-05-14T08:17:26;27.80;31.90
80258;DHT22;69565;37.974;23.708;2023-05-14T08:19:52;27.80;32.00
80258;DHT22;69565;37.974;23.708;2023-05-14T08:22:18;27.70;32.00
80258;DHT22;69565;37.974;23.708;2023-05-14T08:24:44;27.70;32.10
80258;DHT22;69565;37.974;23.708;2023-05-14T08:27:09;27.60;32.20
80258;DHT22;69565;37.974;23.708;2023-05-14T08:29:35;27.60;32.40
80258;DHT22;69565;37.974;23.708;2023-05-14T08:32:01;27.50;32.40
80258;DHT22;69565;37.974;23.708;2023-05-14T08:34:27;27.40;32.50
80258;DHT22;69565;37.974;23.708;2023-05-14T08:36:53;27.30;32.60
80258;DHT22;69565;37.974;23.708;2023-05-14T08:39:19;27.30;32.70
80258;DHT22;69565;37.974;23.708;2023-05-14T08:41:44;27.30;32.80
80258;DHT22;69565;37.974;23.708;2023-05-14T08:44:14;27.30;33.00
80258;DHT22;69565;37.974;23.708;2023-05-14T08:46:40;27.20;33.00
80258;DHT22;69565;37.974;23.708;2023-05-14T08:49:41;27.10;33.00
80258;DHT22;69565;37.974;23.708;2023-05-14T08:52:10;27.20;33.20
80258;DHT22;69565;37.974;23.708;2023-05-14T08:54:36;27.10;33.30
80258;DHT22;69565;37.974;23.708;2023-05-14T08:57:03;27.10;33.40
80258;DHT22;69565;37.974;23.708;2023-05-14T08:59:29;27.10;33.40
80258;DHT22;69565;37.974;23.708;2023-05-14T09:01:58;27.10;33.40
80258;DHT22;69565;37.974;23.708;2023-05-14T09:04:25;27.00;33.40
80258;DHT22;69565;37.974;23.708;2023-05-14T09:06:53;27.00;33.50
80258;DHT22;69565;37.974;23.708;2023-05-14T09:09:19;27.00;33.70
80258;DHT22;69565;37.974;23.708;2023-05-14T09:11:49;27.00;33.70
80258;DHT22;69565;37.974;23.708;2023-05-14T09:14:16;27.00;33.80
80258;DHT22;69565;37.974;23.708;2023-05-14T09:16:46;27.00;34.80
80258;DHT22;69565;37.974;23.708;2023-05-14T09:19:13;27.00;33.90
80258;DHT22;69565;37.974;23.708;2023-05-14T09:21:40;26.90;33.80
80258;DHT22;69565;37.974;23.708;2023-05-14T09:24:07;27.00;33.90
80258;DHT22;69565;37.974;23.708;2023-05-14T09:26:33;26.90;33.90
80258;DHT22;69565;37.974;23.708;2023-05-14T09:29:01;26.90;33.90
80258;DHT22;69565;37.974;23.708;2023-05-14T09:31:31;27.00;34.00
80258;DHT22;69565;37.974;23.708;2023-05-14T09:33:58;27.00;34.00
80258;DHT22;69565;37.974;23.708;2023-05-14T09:36:24;26.90;33.90
80258;DHT22;69565;37.974;23.708;2023-05-14T09:38:57;26.90;33.90
80258;DHT22;69565;37.974;23.708;2023-05-14T09:41:23;26.90;34.00
80258;DHT22;69565;37.974;23.708;2023-05-14T09:43:50;26.90;34.00
80258;DHT22;69565;37.974;23.708;2023-05-14T09:46:16;26.90;34.00
80258;DHT22;69565;37.974;23.708;2023-05-14T09:48:42;26.90;34.00
80258;DHT22;69565;37.974;23.708;2023-05-14T09:51:09;26.90;34.00
80258;DHT22;69565;37.974;23.708;2023-05-14T09:53:36;26.90;33.90
80258;DHT22;69565;37.974;23.708;2023-05-14T09:56:02;26.90;33.90
80258;DHT22;69565;37.974;23.708;2023-05-14T09:58:27;26.90;33.90
80258;DHT22;69565;37.974;23.708;2023-05-14T10:00:56;26.90;33.90
80258;DHT22;69565;37.974;23.708;2023-05-14T10:03:24;26.90;33.90
80258;DHT22;69565;37.974;23.708;2023-05-14T10:05:51;26.90;33.90
80258;DHT22;69565;37.974;23.708;2023-05-14T10:08:26;26.90;33.90
80258;DHT22;69565;37.974;23.708;2023-05-14T10:10:57;26.90;33.80
80258;DHT22;69565;37.974;23.708;2023-05-14T10:13:29;26.80;33.80
80258;DHT22;69565;37.974;23.708;2023-05-14T10:18:30;26.80;33.70
80258;DHT22;69565;37.974;23.708;2023-05-14T10:21:04;26.80;33.70
80258;DHT22;69565;37.974;23.708;2023-05-14T10:23:30;26.80;33.70
80258;DHT22;69565;37.974;23.708;2023-05-14T10:25:57;26.80;33.70
80258;DHT22;69565;37.974;23.708;2023-05-14T10:28:23;26.80;33.80
80258;DHT22;69565;37.974;23.708;2023-05-14T10:30:49;26.80;33.80
80258;DHT22;69565;37.974;23.708;2023-05-14T10:33:15;26.80;33.90
80258;DHT22;69565;37.974;23.708;2023-05-14T10:36:06;26.70;33.80
80258;DHT22;69565;37.974;23.708;2023-05-14T10:38:36;26.70;33.90
80258;DHT22;69565;37.974;23.708;2023-05-14T10:41:20;26.70;33.90
80258;DHT22;69565;37.974;23.708;2023-05-14T10:43:46;26.70;35.00
80258;DHT22;69565;37.974;23.708;2023-05-14T10:46:13;26.70;34.10
80258;DHT22;69565;37.974;23.708;2023-05-14T10:48:41;26.70;34.10
80258;DHT22;69565;37.974;23.708;2023-05-14T10:51:10;26.70;34.10
80258;DHT22;69565;37.974;23.708;2023-05-14T10:53:41;26.70;34.20
80258;DHT22;69565;37.974;23.708;2023-05-14T10:56:09;26.70;34.30
80258;DHT22;69565;37.974;23.708;2023-05-14T10:58:40;26.70;34.30
80258;DHT22;69565;37.974;23.708;2023-05-14T11:01:07;26.70;34.40
80258;DHT22;69565;37.974;23.708;2023-05-14T11:03:39;26.70;34.50
80258;DHT22;69565;37.974;23.708;2023-05-14T11:06:06;26.70;34.60
80258;DHT22;69565;37.974;23.708;2023-05-14T11:08:32;26.70;34.70
80258;DHT22;69565;37.974;23.708;2023-05-14T11:10:58;26.70;34.70
80258;DHT22;69565;37.974;23.708;2023-05-14T11:13:28;26.60;34.70
80258;DHT22;69565;37.974;23.708;2023-05-14T11:15:55;26.60;34.80
80258;DHT22;69565;37.974;23.708;2023-05-14T11:18:31;26.60;34.90
80258;DHT22;69565;37.974;23.708;2023-05-14T11:21:06;26.60;34.80
80258;DHT22;69565;37.974;23.708;2023-05-14T11:23:31;26.60;34.80
80258;DHT22;69565;37.974;23.708;2023-05-14T11:25:57;26.60;34.90
80258;DHT22;69565;37.974;23.708;2023-05-14T11:28:24;26.60;34.80
80258;DHT22;69565;37.974;23.708;2023-05-14T11:30:51;26.60;34.80
80258;DHT22;69565;37.974;23.708;2023-05-14T11:33:18;26.60;34.90
80258;DHT22;69565;37.974;23.708;2023-05-14T11:35:45;26.60;34.80
80258;DHT22;69565;37.974;23.708;2023-05-14T11:38:19;26.60;35.00
80258;DHT22;69565;37.974;23.708;2023-05-14T11:40:55;26.60;35.10
80258;DHT22;69565;37.974;23.708;2023-05-14T11:43:21;26.60;35.00
80258;DHT22;69565;37.974;23.708;2023-05-14T11:45:51;26.60;35.00
80258;DHT22;69565;37.974;23.708;2023-05-14T11:48:18;26.60;35.20
80258;DHT22;69565;37.974;23.708;2023-05-14T11:50:48;26.60;35.10
80258;DHT22;69565;37.974;23.708;2023-05-14T11:53:20;26.60;35.10
80258;DHT22;69565;37.974;23.708;2023-05-14T11:55:49;26.60;35.10
80258;DHT22;69565;37.974;23.708;2023-05-14T11:58:15;26.60;35.10
80258;DHT22;69565;37.974;23.708;2023-05-14T12:00:49;26.60;35.00
80258;DHT22;69565;37.974;23.708;2023-05-14T12:03:17;26.50;35.00
80258;DHT22;69565;37.974;23.708;2023-05-14T12:05:59;26.60;35.00
80258;DHT22;69565;37.974;23.708;2023-05-14T12:08:28;26.50;35.00
80258;DHT22;69565;37.974;23.708;2023-05-14T12:10:54;26.50;34.90
80258;DHT22;69565;37.974;23.708;2023-05-14T12:13:21;26.50;35.00
80258;DHT22;69565;37.974;23.708;2023-05-14T12:15:53;26.50;35.00
80258;DHT22;69565;37.974;23.708;2023-05-14T12:18:19;26.50;35.00
80258;DHT22;69565;37.974;23.708;2023-05-14T12:20:48;26.60;35.10
80258;DHT22;69565;37.974;23.708;2023-05-14T12:23:15;26.50;35.00
80258;DHT22;69565;37.974;23.708;2023-05-14T12:25:51;26.50;35.10
80258;DHT22;69565;37.974;23.708;2023-05-14T12:28:17;26.50;35.10
80258;DHT22;69565;37.974;23.708;2023-05-14T12:30:44;26.50;35.10
80258;DHT22;69565;37.974;23.708;2023-05-14T12:33:10;26.50;35.20
80258;DHT22;69565;37.974;23.708;2023-05-14T12:35:36;26.50;35.20
80258;DHT22;69565;37.974;23.708;2023-05-14T12:38:02;26.50;35.20
80258;DHT22;69565;37.974;23.708;2023-05-14T12:40:28;26.50;35.30
80258;DHT22;69565;37.974;23.708;2023-05-14T12:42:54;26.50;35.30
80258;DHT22;69565;37.974;23.708;2023-05-14T12:45:20;26.50;35.30
80258;DHT22;69565;37.974;23.708;2023-05-14T12:47:46;26.40;35.20
80258;DHT22;69565;37.974;23.708;2023-05-14T12:50:12;26.40;35.30
80258;DHT22;69565;37.974;23.708;2023-05-14T12:52:37;26.40;35.30
80258;DHT22;69565;37.974;23.708;2023-05-14T12:55:04;26.40;35.30
80258;DHT22;69565;37.974;23.708;2023-05-14T12:57:30;26.40;35.30
80258;DHT22;69565;37.974;23.708;2023-05-14T12:59:56;26.40;35.30
80258;DHT22;69565;37.974;23.708;2023-05-14T13:02:21;26.40;35.40
80258;DHT22;69565;37.974;23.708;2023-05-14T13:04:47;26.40;35.30
80258;DHT22;69565;37.974;23.708;2023-05-14T13:07:13;26.40;35.40
80258;DHT22;69565;37.974;23.708;2023-05-14T13:09:39;26.40;35.40
80258;DHT22;69565;37.974;23.708;2023-05-14T13:12:05;26.40;35.40
80258;DHT22;69565;37.974;23.708;2023-05-14T13:14:30;26.30;35.40
80258;DHT22;69565;37.974;23.708;2023-05-14T13:16:56;26.30;35.40
80258;DHT22;69565;37.974;23.708;2023-05-14T13:19:22;26.30;35.40
80258;DHT22;69565;37.974;23.708;2023-05-14T13:21:48;26.30;35.40
80258;DHT22;69565;37.974;23.708;2023-05-14T13:24:13;26.30;35.40
80258;DHT22;69565;37.974;23.708;2023-05-14T13:26:39;26.30;35.40
80258;DHT22;69565;37.974;23.708;2023-05-14T13:29:05;26.30;35.40
80258;DHT22;69565;37.974;23.708;2023-05-14T13:31:31;26.30;35.40
80258;DHT22;69565;37.974;23.708;2023-05-14T13:33:57;26.30;35.50
80258;DHT22;69565;37.974;23.708;2023-05-14T13:36:23;26.30;35.50
80258;DHT22;69565;37.974;23.708;2023-05-14T13:38:49;26.20;35.30
80258;DHT22;69565;37.974;23.708;2023-05-14T13:41:15;26.20;35.30
80258;DHT22;69565;37.974;23.708;2023-05-14T13:43:41;26.20;35.30
80258;DHT22;69565;37.974;23.708;2023-05-14T13:46:06;26.20;35.30
80258;DHT22;69565;37.974;23.708;2023-05-14T13:48:32;26.20;35.30
80258;DHT22;69565;37.974;23.708;2023-05-14T13:50:58;26.20;35.30
80258;DHT22;69565;37.974;23.708;2023-05-14T13:53:24;26.20;35.30
80258;DHT22;69565;37.974;23.708;2023-05-14T13:55:50;26.20;35.30
80258;DHT22;69565;37.974;23.708;2023-05-14T13:58:23;26.20;35.20
80258;DHT22;69565;37.974;23.708;2023-05-14T14:00:49;26.20;35.30
80258;DHT22;69565;37.974;23.708;2023-05-14T14:03:15;26.20;35.30
80258;DHT22;69565;37.974;23.708;2023-05-14T14:05:41;26.20;35.30
80258;DHT22;69565;37.974;23.708;2023-05-14T14:08:07;26.20;35.30
80258;DHT22;69565;37.974;23.708;2023-05-14T14:10:32;26.20;35.20
80258;DHT22;69565;37.974;23.708;2023-05-14T14:12:58;26.20;35.20
80258;DHT22;69565;37.974;23.708;2023-05-14T14:15:24;26.20;35.30
80258;DHT22;69565;37.974;23.708;2023-05-14T14:17:50;26.20;35.30
80258;DHT22;69565;37.974;23.708;2023-05-14T14:20:19;26.20;35.30
80258;DHT22;69565;37.974;23.708;2023-05-14T14:22:44;26.20;35.30
80258;DHT22;69565;37.974;23.708;2023-05-14T14:25:10;26.20;35.40
80258;DHT22;69565;37.974;23.708;2023-05-14T14:27:37;26.20;35.50
80258;DHT22;69565;37.974;23.708;2023-05-14T14:30:07;26.10;35.30
80258;DHT22;69565;37.974;23.708;2023-05-14T14:32:34;26.10;35.50
80258;DHT22;69565;37.974;23.708;2023-05-14T14:35:00;26.10;35.50
80258;DHT22;69565;37.974;23.708;2023-05-14T14:37:25;26.10;35.50
80258;DHT22;69565;37.974;23.708;2023-05-14T14:39:51;26.10;35.50
80258;DHT22;69565;37.974;23.708;2023-05-14T14:42:17;26.10;35.50
80258;DHT22;69565;37.974;23.708;2023-05-14T14:44:42;26.10;35.90
80258;DHT22;69565;37.974;23.708;2023-05-14T14:47:08;26.10;35.60
80258;DHT22;69565;37.974;23.708;2023-05-14T14:49:34;26.10;35.80
80258;DHT22;69565;37.974;23.708;2023-05-14T14:52:00;26.10;35.70
80258;DHT22;69565;37.974;23.708;2023-05-14T14:54:26;26.10;35.80
80258;DHT22;69565;37.974;23.708;2023-05-14T14:56:52;26.10;35.90
80258;DHT22;69565;37.974;23.708;2023-05-14T14:59:18;26.00;35.80
80258;DHT22;69565;37.974;23.708;2023-05-14T15:01:43;26.00;35.80
80258;DHT22;69565;37.974;23.708;2023-05-14T15:04:09;26.00;35.90
80258;DHT22;69565;37.974;23.708;2023-05-14T15:06:35;26.00;36.00
80258;DHT22;69565;37.974;23.708;2023-05-14T15:09:01;26.00;36.00
80258;DHT22;69565;37.974;23.708;2023-05-14T15:11:27;26.00;36.00
80258;DHT22;69565;37.974;23.708;2023-05-14T15:13:53;26.00;36.10
80258;DHT22;69565;37.974;23.708;2023-05-14T15:16:19;26.00;36.20
80258;DHT22;69565;37.974;23.708;2023-05-14T15:18:45;26.00;36.20
80258;DHT22;69565;37.974;23.708;2023-05-14T15:21:14;26.00;37.20